createdAt,value
2023-05-24T00:02:23.993Z,1.00
2023-05-24T00:04:53.177Z,1.00
2023-05-24T00:07:20.670Z,1.00
2023-05-24T00:09:47.672Z,1.00
2023-05-24T00:12:14.598Z,1.00
2023-05-24T00:14:41.570Z,1.00
2023-05-24T00:17:08.497Z,1.00
2023-05-24T00:19:38.525Z,1.00
2023-05-24T00:22:05.816Z,1.00
2023-05-24T00:24:32.775Z,1.00
2023-05-24T00:26:59.707Z,1.00
2023-05-24T00:29:26.654Z,1.00
2023-05-24T00:31:53.616Z,1.00
2023-05-24T00:34:20.969Z,1.00
2023-05-24T00:36:47.897Z,1.00
2023-05-24T00:39:15.009Z,1.00
2023-05-24T00:41:41.975Z,1.00
2023-05-24T00:44:11.093Z,1.00
2023-05-24T00:46:38.568Z,1.00
2023-05-24T00:49:05.656Z,1.00
2023-05-24T00:51:34.101Z,18.80
2023-05-24T00:54:01.326Z,26.20
2023-05-24T00:56:28.915Z,15.10
2023-05-24T00:58:56.451Z,26.70
2023-05-24T01:01:31.384Z,26.80
2023-05-24T01:03:59.840Z,33.40
2023-05-24T01:06:28.987Z,27.40
2023-05-24T01:09:34.112Z,35.10
2023-05-24T01:12:04.463Z,32.00
2023-05-24T01:14:40.236Z,30.00
2023-05-24T01:17:15.250Z,19.40
2023-05-24T01:20:10.474Z,6.70
2023-05-24T01:23:06.497Z,1.00
2023-05-24T01:26:04.610Z,4.10
2023-05-24T01:28:33.485Z,5.10
2023-05-24T01:31:01.299Z,4.40
2023-05-24T01:33:28.688Z,6.20
2023-05-24T01:35:55.638Z,5.50
2023-05-24T01:38:22.664Z,10.90
2023-05-24T01:40:58.273Z,16.20
2023-05-24T01:44:07.726Z,19.60
2023-05-24T01:46:39.049Z,30.50
2023-05-24T01:49:29.237Z,28.70
2023-05-24T01:52:03.417Z,30.80
2023-05-24T01:54:33.366Z,32.30
2023-05-24T01:57:05.429Z,38.30
2023-05-24T01:59:33.592Z,32.60
2023-05-24T02:02:01.710Z,29.70
2023-05-24T02:04:28.812Z,28.70
2023-05-24T02:06:55.747Z,29.10
2023-05-24T02:09:22.655Z,45.90
2023-05-24T02:11:49.675Z,46.50
2023-05-24T02:14:17.501Z,48.20
2023-05-24T02:16:47.040Z,37.60
2023-05-24T02:19:14.617Z,34.80
2023-05-24T02:21:41.570Z,30.70
2023-05-24T02:24:11.366Z,32.00
2023-05-24T02:26:38.918Z,43.80
2023-05-24T02:29:06.172Z,46.40
2023-05-24T02:31:33.476Z,43.40
2023-05-24T02:34:00.493Z,39.10
2023-05-24T02:36:27.702Z,39.20
2023-05-24T02:38:54.877Z,36.80
2023-05-24T02:41:22.258Z,25.60
2023-05-24T02:43:49.227Z,21.40
2023-05-24T02:46:16.362Z,27.70
2023-05-24T02:48:43.476Z,33.30
2023-05-24T02:51:10.472Z,29.10
2023-05-24T02:53:37.405Z,26.90
2023-05-24T02:56:04.423Z,25.80
2023-05-24T02:58:31.373Z,26.60
2023-05-24T03:00:58.346Z,28.10
2023-05-24T03:03:25.369Z,27.40
2023-05-24T03:05:52.413Z,28.30
2023-05-24T03:08:19.321Z,29.40
2023-05-24T03:10:46.233Z,29.70
2023-05-24T03:13:13.133Z,24.70
2023-05-24T03:15:40.154Z,23.20
2023-05-24T03:18:07.105Z,23.50
2023-05-24T03:20:34.168Z,24.10
2023-05-24T03:23:01.196Z,23.60
2023-05-24T03:25:28.190Z,24.10
2023-05-24T03:27:55.194Z,25.70
2023-05-24T03:30:22.122Z,25.90
2023-05-24T03:32:49.130Z,24.10
2023-05-24T03:35:16.153Z,22.90
2023-05-24T03:37:43.126Z,17.90
2023-05-24T03:40:10.281Z,14.40
2023-05-24T03:42:37.299Z,6.10
2023-05-24T03:45:05.328Z,1.00
2023-05-24T03:47:32.376Z,1.00
2023-05-24T03:49:59.404Z,1.00
2023-05-24T03:52:26.525Z,1.00
2023-05-24T03:54:53.530Z,1.00
2023-05-24T03:57:20.611Z,1.00
2023-05-24T03:59:47.544Z,1.00
2023-05-24T04:02:14.775Z,1.00
2023-05-24T04:04:42.321Z,1.00
2023-05-24T04:07:12.113Z,1.00
2023-05-24T04:09:39.311Z,1.00
2023-05-24T04:12:06.401Z,1.00
2023-05-24T04:14:33.338Z,1.00
2023-05-24T04:17:00.323Z,1.00
2023-05-24T04:19:27.391Z,1.00
2023-05-24T04:21:54.342Z,1.00
2023-05-24T04:24:21.390Z,1.00
2023-05-24T04:26:48.329Z,1.00
2023-05-24T04:29:15.545Z,1.00
2023-05-24T04:31:45.051Z,1.00
2023-05-24T04:34:14.442Z,1.00
2023-05-24T04:36:41.628Z,1.00
2023-05-24T04:39:08.545Z,1.00
2023-05-24T04:41:36.160Z,1.00
2023-05-24T04:44:03.170Z,1.00
2023-05-24T04:46:31.506Z,1.00
2023-05-24T04:48:58.580Z,1.00
2023-05-24T04:51:25.693Z,1.00
2023-05-24T04:53:52.805Z,1.00
2023-05-24T04:56:20.176Z,1.00
2023-05-24T04:58:48.077Z,1.00
2023-05-24T05:01:15.135Z,1.00
2023-05-24T05:03:42.254Z,1.00
2023-05-24T05:06:09.339Z,1.00
2023-05-24T05:08:36.345Z,1.00
2023-05-24T05:11:03.562Z,1.00
2023-05-24T05:13:30.787Z,1.00
2023-05-24T05:15:57.734Z,1.00
2023-05-24T05:18:24.698Z,99.90
2023-05-24T05:20:51.956Z,1.00
2023-05-24T05:23:19.053Z,99.90
2023-05-24T05:25:46.197Z,1.00
2023-05-24T05:28:13.196Z,99.90
2023-05-24T05:30:40.282Z,99.90
2023-05-24T05:33:07.414Z,99.90
2023-05-24T05:35:34.513Z,99.90
2023-05-24T05:38:01.582Z,99.90
2023-05-24T05:40:28.546Z,99.90
2023-05-24T05:42:55.497Z,99.90
2023-05-24T05:45:22.476Z,87.20
2023-05-24T05:47:49.545Z,1.00
2023-05-24T05:50:16.639Z,96.90
2023-05-24T05:52:43.622Z,99.90
2023-05-24T05:55:12.323Z,99.90
2023-05-24T05:57:39.329Z,99.90
2023-05-24T06:00:07.161Z,99.90
2023-05-24T06:02:34.396Z,99.90
2023-05-24T06:05:01.408Z,99.90
2023-05-24T06:07:28.641Z,99.90
2023-05-24T06:09:55.672Z,99.90
2023-05-24T06:12:22.649Z,99.90
2023-05-24T06:14:50.818Z,99.90
2023-05-24T06:17:18.682Z,99.90
2023-05-24T06:19:45.916Z,99.90
2023-05-24T06:22:12.944Z,1.00
2023-05-24T06:24:40.067Z,93.50
2023-05-24T06:27:07.026Z,1.00
2023-05-24T06:29:33.972Z,99.90
2023-05-24T06:32:01.213Z,1.00
2023-05-24T06:34:29.851Z,99.90
2023-05-24T06:36:56.874Z,22.30
2023-05-24T06:39:25.388Z,99.90
2023-05-24T06:41:53.949Z,1.00
2023-05-24T06:44:23.976Z,99.90
2023-05-24T06:46:52.310Z,99.90
2023-05-24T06:49:19.304Z,1.00
2023-05-24T06:51:47.086Z,99.90
2023-05-24T06:54:14.130Z,99.90
2023-05-24T06:56:41.315Z,99.90
2023-05-24T06:59:08.943Z,86.30
2023-05-24T07:01:39.802Z,66.90
2023-05-24T07:04:07.056Z,99.90
2023-05-24T07:06:34.333Z,99.90
2023-05-24T07:09:04.780Z,99.90
2023-05-24T07:11:32.384Z,99.90
2023-05-24T07:13:59.465Z,99.90
2023-05-24T07:16:26.567Z,99.90
2023-05-24T07:18:55.128Z,99.90
2023-05-24T07:21:22.935Z,99.90
2023-05-24T07:23:51.707Z,74.80
2023-05-24T07:26:18.768Z,55.40
2023-05-24T07:28:46.036Z,5.80
2023-05-24T07:31:13.474Z,1.00
2023-05-24T07:33:40.631Z,1.00
2023-05-24T07:36:08.939Z,1.00
2023-05-24T07:38:36.398Z,1.00
2023-05-24T07:41:04.876Z,1.00
2023-05-24T07:43:31.964Z,1.00
2023-05-24T07:45:59.060Z,1.00
2023-05-24T07:48:26.260Z,1.00
2023-05-24T07:50:53.207Z,1.00
2023-05-24T07:53:20.256Z,99.90
2023-05-24T07:55:47.343Z,99.90
2023-05-24T07:58:14.242Z,99.90
2023-05-24T08:00:41.934Z,99.90
2023-05-24T08:03:09.104Z,99.90
2023-05-24T08:05:36.203Z,99.90
2023-05-24T08:08:03.304Z,99.90
2023-05-24T08:10:30.942Z,99.90
2023-05-24T08:12:57.896Z,99.90
2023-05-24T08:15:25.471Z,99.90
2023-05-24T08:17:52.561Z,99.90
2023-05-24T08:20:19.684Z,99.90
2023-05-24T08:22:48.626Z,99.90
2023-05-24T08:25:16.262Z,99.90
2023-05-24T08:27:43.205Z,99.90
2023-05-24T08:30:11.264Z,99.90
2023-05-24T08:32:38.740Z,99.90
2023-05-24T08:35:18.672Z,99.90
2023-05-24T08:37:48.237Z,99.90
2023-05-24T08:40:15.401Z,99.90
2023-05-24T08:42:42.872Z,99.90
2023-05-24T08:45:12.877Z,99.90
2023-05-24T08:47:40.746Z,99.90
2023-05-24T08:50:08.873Z,99.90
2023-05-24T08:52:36.540Z,99.90
2023-05-24T08:55:05.754Z,99.90
2023-05-24T08:57:34.991Z,99.90
2023-05-24T09:00:02.279Z,99.90
2023-05-24T09:02:31.652Z,99.90
2023-05-24T09:04:59.823Z,99.90
2023-05-24T09:07:27.704Z,99.90
2023-05-24T09:10:01.188Z,99.90
2023-05-24T09:12:38.177Z,99.90
2023-05-24T09:15:08.096Z,99.90
2023-05-24T09:17:37.037Z,99.90
2023-05-24T09:20:11.077Z,99.90
2023-05-24T09:22:41.847Z,99.90
2023-05-24T09:25:12.816Z,99.90
2023-05-24T09:27:40.090Z,99.90
2023-05-24T09:30:12.916Z,99.90
2023-05-24T09:32:41.316Z,99.90
2023-05-24T09:35:10.341Z,99.90
2023-05-24T09:37:38.970Z,99.90
2023-05-24T09:40:11.084Z,99.90
2023-05-24T09:42:38.512Z,99.90
2023-05-24T09:45:09.539Z,99.90
2023-05-24T09:47:38.710Z,99.90
2023-05-24T09:50:11.830Z,99.90
2023-05-24T09:52:39.594Z,99.90
2023-05-24T09:55:16.552Z,99.90
2023-05-24T09:57:53.126Z,99.90
2023-05-24T10:00:25.203Z,99.90
2023-05-24T10:03:13.323Z,1.00
2023-05-24T10:05:44.921Z,1.00
2023-05-24T10:08:12.679Z,1.00
2023-05-24T10:10:39.993Z,1.00
2023-05-24T10:13:07.714Z,1.00
2023-05-24T10:15:34.677Z,99.90
2023-05-24T10:18:02.729Z,99.90
2023-05-24T10:20:30.337Z,99.90
2023-05-24T10:23:02.252Z,99.90
2023-05-24T10:25:30.062Z,99.90
2023-05-24T10:28:07.452Z,99.90
2023-05-24T10:30:59.847Z,99.90
2023-05-24T10:33:27.543Z,99.90
2023-05-24T10:35:54.952Z,99.90
2023-05-24T10:38:23.897Z,99.90
2023-05-24T10:40:51.139Z,99.90
2023-05-24T10:43:18.509Z,99.90
2023-05-24T10:45:50.053Z,99.90
2023-05-24T10:48:17.902Z,99.90
2023-05-24T10:50:45.276Z,99.90
2023-05-24T10:53:19.760Z,99.90
2023-05-24T10:56:06.826Z,99.90
2023-05-24T10:58:55.550Z,99.90
2023-05-24T11:01:41.234Z,99.90
2023-05-24T11:04:15.906Z,99.90
2023-05-24T11:07:03.996Z,99.90
2023-05-24T11:09:32.034Z,99.90
2023-05-24T11:12:07.729Z,99.90
2023-05-24T11:14:55.095Z,99.90
2023-05-24T11:17:23.396Z,99.90
2023-05-24T11:19:55.047Z,99.90
2023-05-24T11:22:24.571Z,99.90
2023-05-24T11:24:53.405Z,99.90
2023-05-24T11:27:20.539Z,99.90
2023-05-24T11:29:48.645Z,99.90
2023-05-24T11:32:18.235Z,99.90
2023-05-24T11:34:48.719Z,99.90
2023-05-24T11:37:17.994Z,99.90
2023-05-24T11:39:52.649Z,99.90
2023-05-24T11:42:21.394Z,99.90
2023-05-24T11:44:49.957Z,99.90
2023-05-24T11:47:16.962Z,99.90
2023-05-24T11:49:43.891Z,99.90
2023-05-24T11:52:10.884Z,99.90
2023-05-24T11:54:38.995Z,99.90
2023-05-24T11:57:06.373Z,99.90
2023-05-24T11:59:35.888Z,99.90
2023-05-24T12:02:07.016Z,99.90
2023-05-24T12:04:35.206Z,99.90
2023-05-24T12:07:02.502Z,99.90
2023-05-24T12:09:29.727Z,99.90
2023-05-24T12:11:58.672Z,99.90
2023-05-24T12:14:33.288Z,99.90
2023-05-24T12:17:03.370Z,99.90
2023-05-24T12:19:35.284Z,99.90
2023-05-24T12:22:07.725Z,99.90
2023-05-24T12:24:35.704Z,99.90
2023-05-24T12:27:08.204Z,99.90
2023-05-24T12:29:41.150Z,99.90
2023-05-24T12:32:15.261Z,99.90
2023-05-24T12:34:44.208Z,99.90
2023-05-24T12:37:13.350Z,99.90
2023-05-24T12:39:43.336Z,99.90
2023-05-24T12:42:12.499Z,99.90
2023-05-24T12:44:40.198Z,99.90
2023-05-24T12:47:09.076Z,99.90
2023-05-24T12:49:36.850Z,99.90
2023-05-24T12:52:04.136Z,99.90
2023-05-24T12:54:31.631Z,99.90
2023-05-24T12:57:03.373Z,99.90
2023-05-24T12:59:30.664Z,99.90
2023-05-24T13:01:58.068Z,99.90
2023-05-24T13:04:27.638Z,99.90
2023-05-24T13:06:55.636Z,99.90
2023-05-24T13:09:23.964Z,99.90
2023-05-24T13:11:52.712Z,99.90
2023-05-24T13:14:20.196Z,99.90
2023-05-24T13:16:47.995Z,99.90
2023-05-24T13:19:15.275Z,99.90
2023-05-24T13:21:42.800Z,99.90
2023-05-24T13:24:09.985Z,99.90
2023-05-24T13:26:38.292Z,99.90
2023-05-24T13:31:40.913Z,99.90
2023-05-24T13:34:10.740Z,99.90
2023-05-24T13:36:38.392Z,99.90
2023-05-24T13:41:37.444Z,99.90
2023-05-24T13:44:04.461Z,99.90
2023-05-24T13:46:31.574Z,99.90
2023-05-24T13:48:58.801Z,99.90
2023-05-24T13:51:27.161Z,99.90
2023-05-24T13:53:55.718Z,99.90
2023-05-24T13:56:24.332Z,99.90
2023-05-24T13:58:52.470Z,99.90
2023-05-24T14:01:19.864Z,99.90
2023-05-24T14:03:46.932Z,99.90
2023-05-24T14:06:14.023Z,99.90
2023-05-24T14:08:41.485Z,99.90
2023-05-24T14:11:08.574Z,99.90
2023-05-24T14:16:06.793Z,99.90
2023-05-24T14:18:34.487Z,99.90
2023-05-24T14:21:01.545Z,99.90
2023-05-24T14:23:31.880Z,99.90
2023-05-24T14:26:02.418Z,99.90
2023-05-24T14:28:29.403Z,99.90
2023-05-24T14:30:56.352Z,99.90
2023-05-24T14:33:23.682Z,99.90
2023-05-24T14:35:51.861Z,99.90
2023-05-24T14:38:18.941Z,99.90
2023-05-24T14:40:48.375Z,99.90
2023-05-24T14:43:15.478Z,99.90
2023-05-24T14:45:43.417Z,99.90
2023-05-24T14:48:11.899Z,99.90
2023-05-24T14:50:40.532Z,99.90
2023-05-24T14:53:12.231Z,99.90
2023-05-24T14:55:44.556Z,99.90
2023-05-24T14:58:12.361Z,99.90
2023-05-24T15:00:40.463Z,99.90
2023-05-24T15:03:12.887Z,99.90
2023-05-24T15:05:41.509Z,99.90
2023-05-24T15:08:09.242Z,99.90
2023-05-24T15:10:36.249Z,99.90
2023-05-24T15:13:03.968Z,99.90
2023-05-24T15:15:31.595Z,99.90
2023-05-24T15:18:00.192Z,99.90
2023-05-24T15:20:27.749Z,99.90
2023-05-24T15:22:55.044Z,99.90
2023-05-24T15:25:22.555Z,99.90
2023-05-24T15:27:49.653Z,99.90
2023-05-24T15:30:19.246Z,99.90
2023-05-24T15:32:46.655Z,99.90
2023-05-24T15:35:13.852Z,99.90
2023-05-24T15:37:41.618Z,99.90
2023-05-24T15:40:10.309Z,99.90
2023-05-24T15:42:37.320Z,99.90
2023-05-24T15:45:04.674Z,99.90
2023-05-24T15:47:36.574Z,99.90
2023-05-24T15:50:04.229Z,99.90
2023-05-24T15:52:31.296Z,99.90
2023-05-24T15:54:58.348Z,99.90
2023-05-24T15:57:25.319Z,99.90
2023-05-24T15:59:52.980Z,99.90
2023-05-24T16:02:21.283Z,99.90
2023-05-24T16:04:48.461Z,99.90
2023-05-24T16:07:15.464Z,99.90
2023-05-24T16:09:42.594Z,99.90
2023-05-24T16:12:10.218Z,99.90
2023-05-24T16:14:37.190Z,99.90
2023-05-24T16:17:05.661Z,99.90
2023-05-24T16:19:32.694Z,99.90
2023-05-24T16:21:59.652Z,99.90
2023-05-24T16:24:27.568Z,99.90
2023-05-24T16:26:54.670Z,99.90
2023-05-24T16:29:21.759Z,99.90
2023-05-24T16:31:48.890Z,99.90
2023-05-24T16:34:16.601Z,99.90
2023-05-24T16:36:45.825Z,99.90
2023-05-24T16:39:12.796Z,99.90
2023-05-24T16:41:40.459Z,99.90
2023-05-24T16:44:07.660Z,99.90
2023-05-24T16:46:34.816Z,99.90
2023-05-24T16:49:03.517Z,99.90
2023-05-24T16:51:30.502Z,99.90
2023-05-24T16:53:57.508Z,99.90
2023-05-24T16:56:24.494Z,99.90
2023-05-24T16:58:52.071Z,99.90
2023-05-24T17:01:19.146Z,99.90
2023-05-24T17:03:46.302Z,99.90
2023-05-24T17:06:13.340Z,99.90
2023-05-24T17:08:40.333Z,99.90
2023-05-24T17:11:07.805Z,99.90
2023-05-24T17:13:34.816Z,99.90
2023-05-24T17:16:03.830Z,99.90
2023-05-24T17:18:31.209Z,99.90
2023-05-24T17:21:04.423Z,99.90
2023-05-24T17:23:33.304Z,99.90
2023-05-24T17:26:02.862Z,99.90
2023-05-24T17:28:30.273Z,99.90
2023-05-24T17:30:59.339Z,1.00
2023-05-24T17:33:28.045Z,1.00
2023-05-24T17:35:56.736Z,1.00
2023-05-24T17:38:28.645Z,1.00
2023-05-24T17:40:59.214Z,1.00
2023-05-24T17:43:32.692Z,90.80
2023-05-24T17:46:06.511Z,99.90
2023-05-24T17:48:37.915Z,99.90
2023-05-24T17:51:06.734Z,99.90
2023-05-24T17:53:35.413Z,27.00
2023-05-24T17:56:03.690Z,78.50
2023-05-24T17:58:33.020Z,99.90
2023-05-24T18:01:00.103Z,99.90
2023-05-24T18:03:27.093Z,99.90
2023-05-24T18:05:54.260Z,99.90
2023-05-24T18:08:22.108Z,1.00
2023-05-24T18:10:49.043Z,1.00
2023-05-24T18:13:16.087Z,20.80
2023-05-24T18:15:43.974Z,65.70
2023-05-24T18:18:11.297Z,99.90
2023-05-24T18:20:38.443Z,99.90
2023-05-24T18:23:05.494Z,99.90
2023-05-24T18:25:32.434Z,99.90
2023-05-24T18:27:59.452Z,99.90
2023-05-24T18:30:26.479Z,99.90
2023-05-24T18:35:30.407Z,1.00
2023-05-24T18:37:57.610Z,1.00
2023-05-24T18:40:24.609Z,1.00
2023-05-24T18:42:51.610Z,1.00
2023-05-24T18:45:18.723Z,1.00
2023-05-24T18:47:45.864Z,1.00
2023-05-24T18:50:12.974Z,1.00
2023-05-24T18:52:40.093Z,1.00
2023-05-24T18:55:10.919Z,1.00
2023-05-24T18:57:38.234Z,1.00
2023-05-24T19:00:07.426Z,1.00
2023-05-24T19:02:41.059Z,1.30
2023-05-24T19:05:08.634Z,10.40
2023-05-24T19:07:36.424Z,16.10
2023-05-24T19:10:04.337Z,16.10
2023-05-24T19:12:31.566Z,14.70
2023-05-24T19:14:59.242Z,18.00
2023-05-24T19:17:26.359Z,7.60
2023-05-24T19:19:53.494Z,1.00
2023-05-24T19:22:20.532Z,1.00
2023-05-24T19:24:47.515Z,1.00
2023-05-24T19:27:14.739Z,1.00
2023-05-24T19:29:41.801Z,1.00
2023-05-24T19:32:09.039Z,1.00
2023-05-24T19:34:37.433Z,1.00
2023-05-24T19:37:04.774Z,99.90
2023-05-24T19:39:31.755Z,99.90
2023-05-24T19:41:58.751Z,99.90
2023-05-24T19:44:25.723Z,1.00
2023-05-24T19:46:52.736Z,99.90
2023-05-24T19:49:19.753Z,1.00
2023-05-24T19:51:46.742Z,99.90
2023-05-24T19:54:13.820Z,99.90
2023-05-24T19:56:40.900Z,33.70
2023-05-24T19:59:07.921Z,18.50
2023-05-24T20:01:34.932Z,1.00
2023-05-24T20:04:02.134Z,1.00
2023-05-24T20:06:29.652Z,99.90
2023-05-24T20:08:58.913Z,99.90
2023-05-24T20:11:26.646Z,99.90
2023-05-24T20:13:53.814Z,99.90
2023-05-24T20:16:21.584Z,99.90
2023-05-24T20:18:48.812Z,99.90
2023-05-24T20:21:18.973Z,27.70
2023-05-24T20:23:46.188Z,99.90
2023-05-24T20:26:13.232Z,1.00
2023-05-24T20:28:40.167Z,1.00
2023-05-24T20:31:07.428Z,1.00
2023-05-24T20:33:38.359Z,55.80
2023-05-24T20:36:06.198Z,99.90
2023-05-24T20:38:33.700Z,99.90
2023-05-24T20:41:00.756Z,15.30
2023-05-24T20:43:27.730Z,99.90
2023-05-24T20:45:55.124Z,99.90
2023-05-24T20:48:23.347Z,25.50
2023-05-24T20:50:50.407Z,99.90
2023-05-24T20:53:18.013Z,99.90
2023-05-24T20:55:45.231Z,99.90
2023-05-24T20:58:12.519Z,99.90
2023-05-24T21:00:40.177Z,1.00
2023-05-24T21:03:07.891Z,99.90
2023-05-24T21:05:39.823Z,99.90
2023-05-24T21:08:06.995Z,99.90
2023-05-24T21:10:43.691Z,1.00
2023-05-24T21:13:10.729Z,1.00
2023-05-24T21:15:37.730Z,41.00
2023-05-24T21:18:04.937Z,99.90
2023-05-24T21:20:31.964Z,99.90
2023-05-24T21:22:59.387Z,99.90
2023-05-24T21:25:26.397Z,99.90
2023-05-24T21:27:53.400Z,99.90
2023-05-24T21:30:20.480Z,99.90
2023-05-24T21:32:47.454Z,1.00
2023-05-24T21:35:14.539Z,1.00
2023-05-24T21:37:41.464Z,1.00
2023-05-24T21:40:08.762Z,1.00
2023-05-24T21:42:37.276Z,1.00
2023-05-24T21:45:04.859Z,1.00
2023-05-24T21:47:31.947Z,10.90
2023-05-24T21:49:59.070Z,99.90
2023-05-24T21:52:26.009Z,99.90
2023-05-24T21:54:52.969Z,99.90
2023-05-24T21:57:19.923Z,99.90
2023-05-24T21:59:46.933Z,46.40
2023-05-24T22:02:14.489Z,97.40
2023-05-24T22:04:41.480Z,1.00
2023-05-24T22:07:08.390Z,5.90
2023-05-24T22:09:35.435Z,1.00
2023-05-24T22:12:02.504Z,1.00
2023-05-24T22:14:29.432Z,99.90
2023-05-24T22:16:56.487Z,99.90
2023-05-24T22:19:38.782Z,99.90
2023-05-24T22:22:06.274Z,99.90
2023-05-24T22:24:33.248Z,99.90
2023-05-24T22:27:01.398Z,99.90
2023-05-24T22:29:28.622Z,1.00
2023-05-24T22:31:55.703Z,1.00
2023-05-24T22:34:27.429Z,1.00
2023-05-24T22:36:55.020Z,1.00
2023-05-24T22:39:22.074Z,42.90
2023-05-24T22:41:49.532Z,35.70
2023-05-24T22:44:16.851Z,34.50
2023-05-24T22:46:43.882Z,99.90
2023-05-24T22:49:13.497Z,99.90
2023-05-24T22:51:44.394Z,99.90
2023-05-24T22:54:11.848Z,99.90
2023-05-24T22:56:39.326Z,99.90
2023-05-24T22:59:06.793Z,99.90
2023-05-24T23:01:33.929Z,99.90
2023-05-24T23:04:11.974Z,99.90
2023-05-24T23:06:46.410Z,99.90
2023-05-24T23:09:13.351Z,99.90
2023-05-24T23:11:40.584Z,99.90
2023-05-24T23:14:08.970Z,99.90
2023-05-24T23:16:45.550Z,99.90
2023-05-24T23:19:18.470Z,99.90
2023-05-24T23:21:45.792Z,99.90
2023-05-24T23:24:14.805Z,99.90
2023-05-24T23:26:42.441Z,99.90
2023-05-24T23:29:09.623Z,99.90
2023-05-24T23:31:36.864Z,99.90
2023-05-24T23:34:04.664Z,99.90
2023-05-24T23:36:31.727Z,99.90
2023-05-24T23:38:58.780Z,99.90
2023-05-24T23:41:26.616Z,99.90
2023-05-24T23:43:53.588Z,99.90
2023-05-24T23:46:20.683Z,99.90
2023-05-24T23:48:47.684Z,99.90
2023-05-24T23:51:14.597Z,99.90
2023-05-24T23:53:41.507Z,99.90
2023-05-24T23:56:08.625Z,99.90
2023-05-24T23:58:37.771Z,99.90
